Portada
METAR-TAF:

METAR-TAF

Aeroports :

Nueva Loja, Equador

latitud: 00-05-33N, longitud: 076-52-10W, altitud: 299 m

Observació

L'informe es va fer fa 50 minuts, a les 12:00 UTC
Vent 2 kt del Sud/Sud-Oest
Temperatura 22°C
Humitat 94%
Pressió 1014 hPa
Visibilitat 10 km o més
Núvols disperses a una alçada de 2000 ft
Cel cobert a una alçada de 10000 ft
xàfecs en les proximitats

METAR: SENL 081200Z 20002KT 9999 VCSH SCT020 OVC100 22/21 Q1014 RMK A2996

Hora: 07:50 (12:50 UTC)


TAF: manca

Observacions i pronòstics meteorològics de més de 4000 aeroports (METAR i TAF).

Les estacions disponibles són els punts grocs i vermells al mapa.

Posi el ratolí al punt desitjat per veure el nom de l'estació.

Feu clic per veure les observacions i els pronòstics meteorològics.

Per canviar el mapa: feu clic els botons verds amb una creu de color negre per apropar; al botó verd amb un guió per allunyar la imatge; o en les fletxes verdes per a mapes adjacents.


METAR-TAF: